sensor_id;sensor_type;location;lat;lon;timestamp;pressure;altitude;pressure_sealevel;temperature;humidity
72308;BME280;60257;42.638;23.376;2023-12-29T00:01:57;95296.38;;;1.25;86.70
72308;BME280;60257;42.638;23.376;2023-12-29T00:04:25;95298.81;;;1.31;86.39
72308;BME280;60257;42.638;23.376;2023-12-29T00:06:50;95309.59;;;1.36;86.88
72308;BME280;60257;42.638;23.376;2023-12-29T00:09:15;95302.28;;;1.32;85.97
72308;BME280;60257;42.638;23.376;2023-12-29T00:11:41;95300.19;;;1.24;86.04
72308;BME280;60257;42.638;23.376;2023-12-29T00:14:06;95306.38;;;1.24;86.30
72308;BME280;60257;42.638;23.376;2023-12-29T00:16:32;95305.59;;;1.24;86.57
72308;BME280;60257;42.638;23.376;2023-12-29T00:18:57;95311.00;;;1.24;86.96
72308;BME280;60257;42.638;23.376;2023-12-29T00:21:22;95303.13;;;1.17;86.99
72308;BME280;60257;42.638;23.376;2023-12-29T00:23:48;95308.28;;;1.19;86.94
72308;BME280;60257;42.638;23.376;2023-12-29T00:26:17;95306.38;;;1.19;87.09
72308;BME280;60257;42.638;23.376;2023-12-29T00:28:44;95314.25;;;1.15;87.38
72308;BME280;60257;42.638;23.376;2023-12-29T00:31:14;95309.66;;;1.16;87.56
72308;BME280;60257;42.638;23.376;2023-12-29T00:33:41;95314.50;;;1.14;87.94
72308;BME280;60257;42.638;23.376;2023-12-29T00:36:06;95315.84;;;1.11;87.97
72308;BME280;60257;42.638;23.376;2023-12-29T00:38:32;95296.97;;;1.06;88.01
72308;BME280;60257;42.638;23.376;2023-12-29T00:40:57;95312.34;;;1.16;88.03
72308;BME280;60257;42.638;23.376;2023-12-29T00:43:22;95308.00;;;1.20;88.10
72308;BME280;60257;42.638;23.376;2023-12-29T00:45:48;95303.69;;;1.14;88.05
72308;BME280;60257;42.638;23.376;2023-12-29T00:48:13;95304.22;;;1.21;88.34
72308;BME280;60257;42.638;23.376;2023-12-29T00:50:39;95298.28;;;1.29;87.94
72308;BME280;60257;42.638;23.376;2023-12-29T00:53:04;95293.94;;;1.28;87.84
72308;BME280;60257;42.638;23.376;2023-12-29T00:55:29;95289.63;;;1.27;87.72
72308;BME280;60257;42.638;23.376;2023-12-29T00:57:55;95289.34;;;1.29;87.98
72308;BME280;60257;42.638;23.376;2023-12-29T01:00:20;95288.53;;;1.33;87.36
72308;BME280;60257;42.638;23.376;2023-12-29T01:02:46;95285.28;;;1.36;87.11
72308;BME280;60257;42.638;23.376;2023-12-29T01:05:17;95286.09;;;1.32;87.07
72308;BME280;60257;42.638;23.376;2023-12-29T01:07:43;95283.94;;;1.39;86.90
72308;BME280;60257;42.638;23.376;2023-12-29T01:10:09;95280.16;;;1.30;86.84
72308;BME280;60257;42.638;23.376;2023-12-29T01:12:34;95291.78;;;1.30;86.39
72308;BME280;60257;42.638;23.376;2023-12-29T01:15:00;95286.38;;;1.25;86.20
72308;BME280;60257;42.638;23.376;2023-12-29T01:17:25;95283.44;;;1.22;86.38
72308;BME280;60257;42.638;23.376;2023-12-29T01:19:53;95280.72;;;1.22;86.54
72308;BME280;60257;42.638;23.376;2023-12-29T01:22:19;95289.63;;;1.17;86.62
72308;BME280;60257;42.638;23.376;2023-12-29T01:24:44;95277.22;;;1.11;86.97
72308;BME280;60257;42.638;23.376;2023-12-29T01:27:09;95291.56;;;1.06;87.18
72308;BME280;60257;42.638;23.376;2023-12-29T01:29:35;95291.84;;;1.00;87.71
72308;BME280;60257;42.638;23.376;2023-12-29T01:32:00;95293.19;;;0.97;88.28
72308;BME280;60257;42.638;23.376;2023-12-29T01:34:28;95288.59;;;1.08;88.06
72308;BME280;60257;42.638;23.376;2023-12-29T01:36:58;95293.97;;;1.13;87.84
72308;BME280;60257;42.638;23.376;2023-12-29T01:39:23;95288.28;;;1.09;87.66
72308;BME280;60257;42.638;23.376;2023-12-29T01:41:49;95282.06;;;1.09;87.54
72308;BME280;60257;42.638;23.376;2023-12-29T01:46:39;95286.97;;;1.07;87.19
72308;BME280;60257;42.638;23.376;2023-12-29T01:49:05;95284.25;;;1.02;87.14
72308;BME280;60257;42.638;23.376;2023-12-29T01:51:30;95291.81;;;1.05;86.61
72308;BME280;60257;42.638;23.376;2023-12-29T01:53:57;95285.06;;;1.07;86.72
72308;BME280;60257;42.638;23.376;2023-12-29T01:56:23;95287.50;;;1.04;87.32
72308;BME280;60257;42.638;23.376;2023-12-29T01:58:49;95287.75;;;1.02;87.47
72308;BME280;60257;42.638;23.376;2023-12-29T02:01:18;95286.69;;;0.98;88.34
72308;BME280;60257;42.638;23.376;2023-12-29T02:03:44;95277.50;;;1.04;88.01
72308;BME280;60257;42.638;23.376;2023-12-29T02:06:10;95292.63;;;1.05;88.02
72308;BME280;60257;42.638;23.376;2023-12-29T02:08:40;95285.06;;;1.02;88.29
72308;BME280;60257;42.638;23.376;2023-12-29T02:11:05;95279.66;;;1.02;88.60
72308;BME280;60257;42.638;23.376;2023-12-29T02:13:31;95275.34;;;1.01;88.70
72308;BME280;60257;42.638;23.376;2023-12-29T02:16:02;95263.47;;;0.97;88.92
72308;BME280;60257;42.638;23.376;2023-12-29T02:18:30;95261.84;;;0.96;88.94
72308;BME280;60257;42.638;23.376;2023-12-29T02:20:58;95267.28;;;0.91;89.41
72308;BME280;60257;42.638;23.376;2023-12-29T02:23:23;95247.00;;;0.94;88.67
72308;BME280;60257;42.638;23.376;2023-12-29T02:25:50;95247.28;;;0.92;88.99
72308;BME280;60257;42.638;23.376;2023-12-29T02:28:25;95246.47;;;0.82;89.73
72308;BME280;60257;42.638;23.376;2023-12-29T02:31:07;95253.50;;;0.77;89.91
72308;BME280;60257;42.638;23.376;2023-12-29T02:33:39;95251.06;;;0.81;90.20
72308;BME280;60257;42.638;23.376;2023-12-29T02:36:05;95247.84;;;0.84;89.67
72308;BME280;60257;42.638;23.376;2023-12-29T02:38:32;95239.72;;;0.89;89.51
72308;BME280;60257;42.638;23.376;2023-12-29T02:40:59;95227.31;;;0.83;89.62
72308;BME280;60257;42.638;23.376;2023-12-29T02:43:25;95234.84;;;0.86;89.68
72308;BME280;60257;42.638;23.376;2023-12-29T02:45:50;95222.16;;;0.87;89.78
72308;BME280;60257;42.638;23.376;2023-12-29T02:48:16;95224.88;;;0.87;89.27
72308;BME280;60257;42.638;23.376;2023-12-29T02:50:41;95224.06;;;0.86;88.05
72308;BME280;60257;42.638;23.376;2023-12-29T02:53:07;95216.50;;;0.78;88.84
72308;BME280;60257;42.638;23.376;2023-12-29T02:55:32;95210.56;;;0.71;88.69
72308;BME280;60257;42.638;23.376;2023-12-29T02:57:57;95207.09;;;0.65;89.95
72308;BME280;60257;42.638;23.376;2023-12-29T03:00:23;95213.56;;;0.64;90.50
72308;BME280;60257;42.638;23.376;2023-12-29T03:02:48;95207.91;;;0.61;90.69
72308;BME280;60257;42.638;23.376;2023-12-29T03:05:14;95206.56;;;0.58;90.85
72308;BME280;60257;42.638;23.376;2023-12-29T03:07:40;95212.22;;;0.57;91.11
72308;BME280;60257;42.638;23.376;2023-12-29T03:10:07;95194.97;;;0.53;90.70
72308;BME280;60257;42.638;23.376;2023-12-29T03:12:32;95198.44;;;0.63;90.34
72308;BME280;60257;42.638;23.376;2023-12-29T03:14:58;95189.53;;;0.63;89.80
72308;BME280;60257;42.638;23.376;2023-12-29T03:17:23;95197.09;;;0.71;90.02
72308;BME280;60257;42.638;23.376;2023-12-29T03:19:49;95198.69;;;0.72;89.75
72308;BME280;60257;42.638;23.376;2023-12-29T03:22:14;95197.91;;;0.71;89.71
72308;BME280;60257;42.638;23.376;2023-12-29T03:24:42;95188.22;;;0.60;89.81
72308;BME280;60257;42.638;23.376;2023-12-29T03:27:08;95192.50;;;0.56;89.79
72308;BME280;60257;42.638;23.376;2023-12-29T03:29:34;95189.28;;;0.54;90.09
72308;BME280;60257;42.638;23.376;2023-12-29T03:31:59;95189.81;;;0.51;90.25
72308;BME280;60257;42.638;23.376;2023-12-29T03:34:25;95190.34;;;0.48;91.13
72308;BME280;60257;42.638;23.376;2023-12-29T03:36:50;95194.69;;;0.44;90.76
72308;BME280;60257;42.638;23.376;2023-12-29T03:39:15;95195.47;;;0.39;90.74
72308;BME280;60257;42.638;23.376;2023-12-29T03:41:41;95192.53;;;0.36;91.40
72308;BME280;60257;42.638;23.376;2023-12-29T03:44:06;95192.25;;;0.32;92.17
72308;BME280;60257;42.638;23.376;2023-12-29T03:46:32;95185.78;;;0.28;93.04
72308;BME280;60257;42.638;23.376;2023-12-29T03:48:58;95187.13;;;0.26;93.29
72308;BME280;60257;42.638;23.376;2023-12-29T03:51:23;95192.78;;;0.24;93.55
72308;BME280;60257;42.638;23.376;2023-12-29T03:53:49;95212.22;;;0.26;93.71
72308;BME280;60257;42.638;23.376;2023-12-29T03:56:15;95195.78;;;0.23;92.83
72308;BME280;60257;42.638;23.376;2023-12-29T03:58:41;95212.22;;;0.26;92.99
72308;BME280;60257;42.638;23.376;2023-12-29T04:01:14;95216.28;;;0.29;93.50
72308;BME280;60257;42.638;23.376;2023-12-29T04:03:40;95214.91;;;0.21;93.39
72308;BME280;60257;42.638;23.376;2023-12-29T04:06:06;95212.50;;;0.20;93.57
72308;BME280;60257;42.638;23.376;2023-12-29T04:08:32;95215.44;;;0.18;94.08
72308;BME280;60257;42.638;23.376;2023-12-29T04:10:58;95203.84;;;0.13;93.62
72308;BME280;60257;42.638;23.376;2023-12-29T04:13:23;95212.50;;;0.15;93.53
72308;BME280;60257;42.638;23.376;2023-12-29T04:15:49;95210.88;;;0.14;93.53
72308;BME280;60257;42.638;23.376;2023-12-29T04:18:14;95209.00;;;0.14;93.06
72308;BME280;60257;42.638;23.376;2023-12-29T04:20:39;95217.34;;;0.18;93.05
72308;BME280;60257;42.638;23.376;2023-12-29T04:23:06;95217.88;;;0.05;93.28
72308;BME280;60257;42.638;23.376;2023-12-29T04:25:32;95216.78;;;0.06;93.86
72308;BME280;60257;42.638;23.376;2023-12-29T04:27:58;95213.81;;;-0.03;93.60
72308;BME280;60257;42.638;23.376;2023-12-29T04:30:23;95211.63;;;-0.06;93.73
72308;BME280;60257;42.638;23.376;2023-12-29T04:32:49;95218.91;;;-0.07;93.87
72308;BME280;60257;42.638;23.376;2023-12-29T04:35:15;95206.81;;;-0.09;93.65
72308;BME280;60257;42.638;23.376;2023-12-29T04:37:43;95204.63;;;-0.12;93.31
72308;BME280;60257;42.638;23.376;2023-12-29T04:40:09;95211.13;;;-0.08;93.10
72308;BME280;60257;42.638;23.376;2023-12-29T04:42:34;95207.88;;;-0.05;92.30
72308;BME280;60257;42.638;23.376;2023-12-29T04:44:59;95205.69;;;-0.13;91.96
72308;BME280;60257;42.638;23.376;2023-12-29T04:47:25;95217.03;;;-0.16;92.69
72308;BME280;60257;42.638;23.376;2023-12-29T04:49:50;95200.31;;;-0.23;92.93
72308;BME280;60257;42.638;23.376;2023-12-29T04:52:15;95208.94;;;-0.16;93.13
72308;BME280;60257;42.638;23.376;2023-12-29T04:54:41;95205.16;;;-0.15;93.33
72308;BME280;60257;42.638;23.376;2023-12-29T04:57:06;95203.25;;;-0.25;92.76
72308;BME280;60257;42.638;23.376;2023-12-29T04:59:32;95207.28;;;-0.22;93.05
72308;BME280;60257;42.638;23.376;2023-12-29T05:01:57;95204.59;;;-0.27;92.81
72308;BME280;60257;42.638;23.376;2023-12-29T05:04:22;95208.91;;;-0.26;93.18
72308;BME280;60257;42.638;23.376;2023-12-29T05:06:48;95197.06;;;-0.25;93.27
72308;BME280;60257;42.638;23.376;2023-12-29T05:09:13;95201.34;;;-0.29;93.05
72308;BME280;60257;42.638;23.376;2023-12-29T05:11:39;95197.03;;;-0.35;92.97
72308;BME280;60257;42.638;23.376;2023-12-29T05:14:04;95192.72;;;-0.36;93.20
72308;BME280;60257;42.638;23.376;2023-12-29T05:16:30;95197.06;;;-0.25;93.36
72308;BME280;60257;42.638;23.376;2023-12-29T05:18:55;95186.25;;;-0.30;92.77
72308;BME280;60257;42.638;23.376;2023-12-29T05:21:20;95177.09;;;-0.40;92.88
72308;BME280;60257;42.638;23.376;2023-12-29T05:23:46;95177.59;;;-0.43;93.14
72308;BME280;60257;42.638;23.376;2023-12-29T05:26:14;95180.31;;;-0.43;93.11
72308;BME280;60257;42.638;23.376;2023-12-29T05:28:40;95188.38;;;-0.43;93.19
72308;BME280;60257;42.638;23.376;2023-12-29T05:31:05;95192.41;;;-0.45;93.18
72308;BME280;60257;42.638;23.376;2023-12-29T05:33:34;95193.47;;;-0.46;93.84
72308;BME280;60257;42.638;23.376;2023-12-29T05:36:05;95197.53;;;-0.44;94.74
72308;BME280;60257;42.638;23.376;2023-12-29T05:38:33;95199.41;;;-0.44;94.91
72308;BME280;60257;42.638;23.376;2023-12-29T05:40:58;95198.09;;;-0.42;95.00
72308;BME280;60257;42.638;23.376;2023-12-29T05:43:23;95196.47;;;-0.43;94.87
72308;BME280;60257;42.638;23.376;2023-12-29T05:45:49;95205.41;;;-0.32;94.13
72308;BME280;60257;42.638;23.376;2023-12-29T05:48:14;95207.00;;;-0.31;93.75
72308;BME280;60257;42.638;23.376;2023-12-29T05:50:40;95205.38;;;-0.37;93.04
72308;BME280;60257;42.638;23.376;2023-12-29T05:53:05;95212.13;;;-0.29;93.50
72308;BME280;60257;42.638;23.376;2023-12-29T05:55:31;95211.59;;;-0.26;92.78
72308;BME280;60257;42.638;23.376;2023-12-29T05:57:56;95207.84;;;-0.25;92.89
72308;BME280;60257;42.638;23.376;2023-12-29T06:00:22;95215.13;;;-0.26;92.93
72308;BME280;60257;42.638;23.376;2023-12-29T06:02:47;95198.13;;;-0.26;92.85
72308;BME280;60257;42.638;23.376;2023-12-29T06:05:13;95202.72;;;-0.22;92.99
72308;BME280;60257;42.638;23.376;2023-12-29T06:07:39;95203.25;;;-0.20;92.75
72308;BME280;60257;42.638;23.376;2023-12-29T06:10:05;95200.84;;;-0.16;93.46
72308;BME280;60257;42.638;23.376;2023-12-29T06:12:30;95192.47;;;-0.15;93.98
72308;BME280;60257;42.638;23.376;2023-12-29T06:14:56;95188.19;;;-0.16;93.63
72308;BME280;60257;42.638;23.376;2023-12-29T06:17:21;95187.91;;;-0.19;93.88
72308;BME280;60257;42.638;23.376;2023-12-29T06:19:47;95186.00;;;-0.19;94.01
72308;BME280;60257;42.638;23.376;2023-12-29T06:22:12;95180.34;;;-0.27;94.21
72308;BME280;60257;42.638;23.376;2023-12-29T06:24:39;95180.03;;;-0.31;93.99
72308;BME280;60257;42.638;23.376;2023-12-29T06:27:05;95188.69;;;-0.34;94.25
72308;BME280;60257;42.638;23.376;2023-12-29T06:29:30;95195.16;;;-0.35;94.61
72308;BME280;60257;42.638;23.376;2023-12-29T06:31:56;95185.94;;;-0.44;94.72
72308;BME280;60257;42.638;23.376;2023-12-29T06:34:21;95201.34;;;-0.34;94.35
72308;BME280;60257;42.638;23.376;2023-12-29T06:36:46;95198.66;;;-0.29;94.42
72308;BME280;60257;42.638;23.376;2023-12-29T06:39:12;95198.13;;;-0.21;94.16
72308;BME280;60257;42.638;23.376;2023-12-29T06:41:37;95210.56;;;-0.10;94.11
72308;BME280;60257;42.638;23.376;2023-12-29T06:44:03;95201.94;;;-0.07;93.82
72308;BME280;60257;42.638;23.376;2023-12-29T06:46:28;95210.03;;;-0.02;93.49
72308;BME280;60257;42.638;23.376;2023-12-29T06:48:54;95208.97;;;0.04;93.52
72308;BME280;60257;42.638;23.376;2023-12-29T06:51:19;95196.00;;;0.01;93.28
72308;BME280;60257;42.638;23.376;2023-12-29T06:53:46;95211.94;;;0.08;92.93
72308;BME280;60257;42.638;23.376;2023-12-29T06:56:14;95207.63;;;0.12;93.57
72308;BME280;60257;42.638;23.376;2023-12-29T06:58:41;95200.91;;;0.14;93.63
72308;BME280;60257;42.638;23.376;2023-12-29T07:01:09;95200.88;;;0.19;93.19
72308;BME280;60257;42.638;23.376;2023-12-29T07:03:35;95207.91;;;0.30;92.96
72308;BME280;60257;42.638;23.376;2023-12-29T07:06:01;95205.75;;;0.37;92.69
72308;BME280;60257;42.638;23.376;2023-12-29T07:08:27;95201.41;;;0.47;92.61
72308;BME280;60257;42.638;23.376;2023-12-29T07:10:52;95195.78;;;0.53;92.18
72308;BME280;60257;42.638;23.376;2023-12-29T07:13:18;95202.22;;;0.67;91.39
72308;BME280;60257;42.638;23.376;2023-12-29T07:15:45;95203.56;;;0.75;90.78
72308;BME280;60257;42.638;23.376;2023-12-29T07:18:10;95199.50;;;0.83;90.94
72308;BME280;60257;42.638;23.376;2023-12-29T07:20:36;95194.09;;;0.88;90.63
72308;BME280;60257;42.638;23.376;2023-12-29T07:23:01;95188.94;;;0.96;90.61
72308;BME280;60257;42.638;23.376;2023-12-29T07:25:27;95188.38;;;1.04;90.51
72308;BME280;60257;42.638;23.376;2023-12-29T07:27:53;95185.66;;;1.14;90.04
72308;BME280;60257;42.638;23.376;2023-12-29T07:30:18;95181.03;;;1.20;90.10
72308;BME280;60257;42.638;23.376;2023-12-29T07:32:44;95184.50;;;1.36;90.47
72308;BME280;60257;42.638;23.376;2023-12-29T07:35:09;95178.75;;;1.47;90.21
72308;BME280;60257;42.638;23.376;2023-12-29T07:37:35;95181.97;;;1.60;89.61
72308;BME280;60257;42.638;23.376;2023-12-29T07:40:00;95182.41;;;1.72;89.01
72308;BME280;60257;42.638;23.376;2023-12-29T07:42:26;95181.56;;;1.81;88.27
72308;BME280;60257;42.638;23.376;2023-12-29T07:44:51;95185.28;;;1.90;87.95
72308;BME280;60257;42.638;23.376;2023-12-29T07:47:17;95180.66;;;1.96;87.43
72308;BME280;60257;42.638;23.376;2023-12-29T07:49:42;95176.00;;;2.07;86.69
72308;BME280;60257;42.638;23.376;2023-12-29T07:52:08;95178.09;;;2.15;86.55
72308;BME280;60257;42.638;23.376;2023-12-29T07:54:34;95181.53;;;2.25;86.64
72308;BME280;60257;42.638;23.376;2023-12-29T07:56:59;95182.53;;;2.35;86.33
72308;BME280;60257;42.638;23.376;2023-12-29T07:59:25;95194.38;;;2.44;85.64
72308;BME280;60257;42.638;23.376;2023-12-29T08:01:50;95190.00;;;2.53;84.81
72308;BME280;60257;42.638;23.376;2023-12-29T08:04:16;95197.97;;;2.68;84.55
72308;BME280;60257;42.638;23.376;2023-12-29T08:06:41;95195.19;;;2.78;84.23
72308;BME280;60257;42.638;23.376;2023-12-29T08:09:07;95200.78;;;2.87;83.48
72308;BME280;60257;42.638;23.376;2023-12-29T08:11:33;95197.97;;;2.97;82.61
72308;BME280;60257;42.638;23.376;2023-12-29T08:13:58;95189.22;;;3.05;82.53
72308;BME280;60257;42.638;23.376;2023-12-29T08:16:23;95192.69;;;3.10;82.85
72308;BME280;60257;42.638;23.376;2023-12-29T08:18:49;95191.84;;;3.15;82.55
72308;BME280;60257;42.638;23.376;2023-12-29T08:21:19;95192.06;;;3.19;82.19
72308;BME280;60257;42.638;23.376;2023-12-29T08:23:46;95189.31;;;3.24;82.29
72308;BME280;60257;42.638;23.376;2023-12-29T08:26:11;95193.56;;;3.30;82.50
72308;BME280;60257;42.638;23.376;2023-12-29T08:28:37;95187.78;;;3.36;82.06
72308;BME280;60257;42.638;23.376;2023-12-29T08:31:02;95191.31;;;3.37;81.35
72308;BME280;60257;42.638;23.376;2023-12-29T08:33:28;95200.81;;;3.34;80.80
72308;BME280;60257;42.638;23.376;2023-12-29T08:35:53;95202.31;;;3.22;80.83
72308;BME280;60257;42.638;23.376;2023-12-29T08:38:18;95201.59;;;3.16;80.62
72308;BME280;60257;42.638;23.376;2023-12-29T08:40:44;95195.06;;;3.17;81.01
72308;BME280;60257;42.638;23.376;2023-12-29T08:43:09;95212.75;;;3.09;81.10
72308;BME280;60257;42.638;23.376;2023-12-29T08:45:35;95206.22;;;3.10;81.10
72308;BME280;60257;42.638;23.376;2023-12-29T08:48:01;95204.31;;;3.11;80.74
72308;BME280;60257;42.638;23.376;2023-12-29T08:50:27;95210.00;;;3.15;80.69
72308;BME280;60257;42.638;23.376;2023-12-29T08:52:52;95213.22;;;3.17;80.79
72308;BME280;60257;42.638;23.376;2023-12-29T08:55:18;95209.94;;;3.20;81.21
72308;BME280;60257;42.638;23.376;2023-12-29T08:57:43;95214.72;;;3.28;81.21
72308;BME280;60257;42.638;23.376;2023-12-29T09:00:09;95216.06;;;3.30;81.47
72308;BME280;60257;42.638;23.376;2023-12-29T09:02:35;95215.44;;;3.38;81.13
72308;BME280;60257;42.638;23.376;2023-12-29T09:05:00;95204.31;;;3.40;81.23
72308;BME280;60257;42.638;23.376;2023-12-29T09:07:25;95211.81;;;3.48;81.13
72308;BME280;60257;42.638;23.376;2023-12-29T09:09:53;95213.63;;;3.53;81.23
72308;BME280;60257;42.638;23.376;2023-12-29T09:12:18;95211.09;;;3.61;81.01
72308;BME280;60257;42.638;23.376;2023-12-29T09:14:44;95195.91;;;3.60;81.07
72308;BME280;60257;42.638;23.376;2023-12-29T09:17:09;95193.53;;;3.77;80.86
72308;BME280;60257;42.638;23.376;2023-12-29T09:19:35;95195.06;;;3.83;80.84
72308;BME280;60257;42.638;23.376;2023-12-29T09:22:00;95197.44;;;3.90;80.79
72308;BME280;60257;42.638;23.376;2023-12-29T09:24:26;95192.88;;;4.04;80.11
72308;BME280;60257;42.638;23.376;2023-12-29T09:26:51;95184.88;;;4.13;80.32
72308;BME280;60257;42.638;23.376;2023-12-29T09:29:17;95187.22;;;4.19;80.58
72308;BME280;60257;42.638;23.376;2023-12-29T09:31:43;95186.56;;;4.28;80.08
72308;BME280;60257;42.638;23.376;2023-12-29T09:34:08;95176.16;;;4.35;80.08
72308;BME280;60257;42.638;23.376;2023-12-29T09:36:33;95167.31;;;4.43;80.03
72308;BME280;60257;42.638;23.376;2023-12-29T09:38:59;95171.00;;;4.52;80.08
72308;BME280;60257;42.638;23.376;2023-12-29T09:41:25;95161.97;;;4.56;79.53
72308;BME280;60257;42.638;23.376;2023-12-29T09:43:51;95165.22;;;4.72;79.17
72308;BME280;60257;42.638;23.376;2023-12-29T09:46:17;95160.41;;;4.83;79.35
72308;BME280;60257;42.638;23.376;2023-12-29T09:48:46;95156.50;;;4.89;79.14
72308;BME280;60257;42.638;23.376;2023-12-29T09:51:15;95137.09;;;4.95;79.07
72308;BME280;60257;42.638;23.376;2023-12-29T09:53:42;95140.66;;;5.10;78.65
72308;BME280;60257;42.638;23.376;2023-12-29T09:56:08;95140.25;;;5.16;78.54
72308;BME280;60257;42.638;23.376;2023-12-29T09:58:35;95138.91;;;5.27;77.72
72308;BME280;60257;42.638;23.376;2023-12-29T10:01:06;95137.72;;;5.33;77.77
72308;BME280;60257;42.638;23.376;2023-12-29T10:03:32;95130.97;;;5.45;77.81
72308;BME280;60257;42.638;23.376;2023-12-29T10:06:00;95131.06;;;5.53;77.66
72308;BME280;60257;42.638;23.376;2023-12-29T10:08:27;95127.63;;;5.61;76.99
72308;BME280;60257;42.638;23.376;2023-12-29T10:10:55;95106.94;;;5.74;76.68
72308;BME280;60257;42.638;23.376;2023-12-29T10:13:23;95113.28;;;5.83;76.01
72308;BME280;60257;42.638;23.376;2023-12-29T10:18:45;95115.75;;;6.07;75.53
72308;BME280;60257;42.638;23.376;2023-12-29T10:21:25;95106.72;;;6.20;75.02
72308;BME280;60257;42.638;23.376;2023-12-29T10:23:56;95100.06;;;6.26;74.79
72308;BME280;60257;42.638;23.376;2023-12-29T10:26:23;95101.25;;;6.34;74.53
72308;BME280;60257;42.638;23.376;2023-12-29T10:28:50;95092.63;;;6.40;74.06
72308;BME280;60257;42.638;23.376;2023-12-29T10:31:16;95090.44;;;6.51;74.57
72308;BME280;60257;42.638;23.376;2023-12-29T10:33:42;95086.31;;;6.53;74.05
72308;BME280;60257;42.638;23.376;2023-12-29T10:36:07;95087.19;;;6.63;73.44
72308;BME280;60257;42.638;23.376;2023-12-29T10:38:34;95078.06;;;6.67;72.88
72308;BME280;60257;42.638;23.376;2023-12-29T10:41:18;95072.34;;;6.77;72.57
72308;BME280;60257;42.638;23.376;2023-12-29T10:43:45;95068.56;;;6.87;72.42
72308;BME280;60257;42.638;23.376;2023-12-29T10:46:18;95061.69;;;6.98;72.10
72308;BME280;60257;42.638;23.376;2023-12-29T10:48:43;95057.88;;;7.08;71.16
72308;BME280;60257;42.638;23.376;2023-12-29T10:51:09;95059.69;;;7.12;71.36
72308;BME280;60257;42.638;23.376;2023-12-29T10:53:36;95056.16;;;7.20;71.16
72308;BME280;60257;42.638;23.376;2023-12-29T10:56:02;95048.50;;;7.31;70.13
72308;BME280;60257;42.638;23.376;2023-12-29T10:58:29;95048.19;;;7.32;69.94
72308;BME280;60257;42.638;23.376;2023-12-29T11:00:58;95044.50;;;7.37;70.48
72308;BME280;60257;42.638;23.376;2023-12-29T11:03:25;95036.50;;;7.41;70.69
72308;BME280;60257;42.638;23.376;2023-12-29T11:05:52;95029.44;;;7.48;70.59
72308;BME280;60257;42.638;23.376;2023-12-29T11:08:25;95025.09;;;7.47;71.17
72308;BME280;60257;42.638;23.376;2023-12-29T11:10:50;95024.00;;;7.57;70.59
72308;BME280;60257;42.638;23.376;2023-12-29T11:13:16;95022.56;;;7.68;70.35
72308;BME280;60257;42.638;23.376;2023-12-29T11:15:43;95012.63;;;7.72;70.41
72308;BME280;60257;42.638;23.376;2023-12-29T11:18:13;95012.94;;;7.79;69.92
72308;BME280;60257;42.638;23.376;2023-12-29T11:20:39;95013.88;;;7.83;69.65
72308;BME280;60257;42.638;23.376;2023-12-29T11:23:06;95011.81;;;7.80;69.91
72308;BME280;60257;42.638;23.376;2023-12-29T11:25:33;95013.25;;;7.86;69.87
72308;BME280;60257;42.638;23.376;2023-12-29T11:27:59;95000.41;;;7.87;69.70
72308;BME280;60257;42.638;23.376;2023-12-29T11:30:26;94997.69;;;7.87;69.74
72308;BME280;60257;42.638;23.376;2023-12-29T11:32:55;95004.09;;;7.91;69.92
72308;BME280;60257;42.638;23.376;2023-12-29T11:35:27;95003.47;;;7.94;69.71
72308;BME280;60257;42.638;23.376;2023-12-29T11:41:12;94995.44;;;7.97;69.65
72308;BME280;60257;42.638;23.376;2023-12-29T11:43:38;94991.09;;;8.05;70.03
72308;BME280;60257;42.638;23.376;2023-12-29T11:46:04;94994.59;;;8.05;69.48
72308;BME280;60257;42.638;23.376;2023-12-29T11:48:55;94989.31;;;8.09;69.70
72308;BME280;60257;42.638;23.376;2023-12-29T11:51:35;94992.53;;;8.20;69.05
72308;BME280;60257;42.638;23.376;2023-12-29T11:54:02;94987.34;;;8.27;69.08
72308;BME280;60257;42.638;23.376;2023-12-29T11:56:35;94978.38;;;8.35;68.44
72308;BME280;60257;42.638;23.376;2023-12-29T11:59:14;94981.72;;;8.40;68.09
72308;BME280;60257;42.638;23.376;2023-12-29T12:01:41;94980.28;;;8.43;68.01
72308;BME280;60257;42.638;23.376;2023-12-29T12:04:35;94978.50;;;8.47;68.37
72308;BME280;60257;42.638;23.376;2023-12-29T12:07:03;94972.84;;;8.52;68.43
72308;BME280;60257;42.638;23.376;2023-12-29T12:09:29;94973.31;;;8.54;68.40
72308;BME280;60257;42.638;23.376;2023-12-29T12:11:55;94972.19;;;8.64;68.11
72308;BME280;60257;42.638;23.376;2023-12-29T12:14:43;94975.53;;;8.69;68.33
72308;BME280;60257;42.638;23.376;2023-12-29T12:17:09;94962.34;;;8.71;68.19
72308;BME280;60257;42.638;23.376;2023-12-29T12:19:35;94958.47;;;8.72;67.70
72308;BME280;60257;42.638;23.376;2023-12-29T12:22:01;94964.56;;;8.78;67.33
72308;BME280;60257;42.638;23.376;2023-12-29T12:24:27;94966.97;;;8.79;67.52
72308;BME280;60257;42.638;23.376;2023-12-29T12:26:54;94962.78;;;8.82;67.31
72308;BME280;60257;42.638;23.376;2023-12-29T12:29:20;94961.97;;;8.81;67.36
72308;BME280;60257;42.638;23.376;2023-12-29T12:32:11;94967.25;;;8.86;66.98
72308;BME280;60257;42.638;23.376;2023-12-29T12:34:37;94973.34;;;8.92;66.78
72308;BME280;60257;42.638;23.376;2023-12-29T12:37:03;94965.63;;;8.94;66.39
72308;BME280;60257;42.638;23.376;2023-12-29T12:39:39;94969.28;;;8.98;65.94
72308;BME280;60257;42.638;23.376;2023-12-29T12:42:05;94971.84;;;9.03;64.88
72308;BME280;60257;42.638;23.376;2023-12-29T12:44:31;94973.50;;;9.25;62.50
72308;BME280;60257;42.638;23.376;2023-12-29T12:46:59;94967.13;;;9.42;61.78
72308;BME280;60257;42.638;23.376;2023-12-29T12:49:29;94965.72;;;9.56;61.26
72308;BME280;60257;42.638;23.376;2023-12-29T12:51:54;94971.00;;;9.61;60.09
72308;BME280;60257;42.638;23.376;2023-12-29T12:54:20;94972.81;;;9.57;60.59
72308;BME280;60257;42.638;23.376;2023-12-29T12:56:46;94964.50;;;9.45;60.54
72308;BME280;60257;42.638;23.376;2023-12-29T12:59:12;94972.13;;;9.60;61.10
72308;BME280;60257;42.638;23.376;2023-12-29T13:01:39;94970.00;;;9.66;60.02
72308;BME280;60257;42.638;23.376;2023-12-29T13:04:05;94972.00;;;9.78;59.18